sensor_id;sensor_type;location;lat;lon;timestamp;temperature;humidity
18163;DHT22;9206;50.994;4.538;2022-11-15T00:00:17;9.60;99.90
18163;DHT22;9206;50.994;4.538;2022-11-15T00:03:04;9.60;99.90
18163;DHT22;9206;50.994;4.538;2022-11-15T00:06:01;9.70;99.90
18163;DHT22;9206;50.994;4.538;2022-11-15T00:08:57;9.80;99.90
18163;DHT22;9206;50.994;4.538;2022-11-15T00:11:46;9.90;99.90
18163;DHT22;9206;50.994;4.538;2022-11-15T00:14:45;10.00;99.90
18163;DHT22;9206;50.994;4.538;2022-11-15T00:17:34;10.10;99.90
18163;DHT22;9206;50.994;4.538;2022-11-15T00:20:27;10.30;99.90
18163;DHT22;9206;50.994;4.538;2022-11-15T00:23:17;10.50;99.90
18163;DHT22;9206;50.994;4.538;2022-11-15T00:26:10;10.60;99.90
18163;DHT22;9206;50.994;4.538;2022-11-15T00:28:58;10.70;99.90
18163;DHT22;9206;50.994;4.538;2022-11-15T00:31:56;10.80;99.90
18163;DHT22;9206;50.994;4.538;2022-11-15T00:34:51;10.80;99.90
18163;DHT22;9206;50.994;4.538;2022-11-15T00:37:57;10.80;99.90
18163;DHT22;9206;50.994;4.538;2022-11-15T00:40:50;10.90;99.90
18163;DHT22;9206;50.994;4.538;2022-11-15T00:43:43;10.90;99.90
18163;DHT22;9206;50.994;4.538;2022-11-15T00:46:30;11.00;99.90
18163;DHT22;9206;50.994;4.538;2022-11-15T00:49:18;11.00;99.90
18163;DHT22;9206;50.994;4.538;2022-11-15T00:52:07;11.10;99.90
18163;DHT22;9206;50.994;4.538;2022-11-15T00:55:03;11.10;99.90
18163;DHT22;9206;50.994;4.538;2022-11-15T00:57:56;11.10;99.90
18163;DHT22;9206;50.994;4.538;2022-11-15T01:00:49;11.20;99.90
18163;DHT22;9206;50.994;4.538;2022-11-15T01:03:43;11.20;99.90
18163;DHT22;9206;50.994;4.538;2022-11-15T01:06:30;11.30;99.90
18163;DHT22;9206;50.994;4.538;2022-11-15T01:09:19;11.30;99.90
18163;DHT22;9206;50.994;4.538;2022-11-15T01:12:12;11.40;99.90
18163;DHT22;9206;50.994;4.538;2022-11-15T01:15:00;11.40;99.90
18163;DHT22;9206;50.994;4.538;2022-11-15T01:17:47;11.40;99.90
18163;DHT22;9206;50.994;4.538;2022-11-15T01:20:41;11.40;99.90
18163;DHT22;9206;50.994;4.538;2022-11-15T01:23:29;11.40;99.90
18163;DHT22;9206;50.994;4.538;2022-11-15T01:26:24;11.50;99.90
18163;DHT22;9206;50.994;4.538;2022-11-15T01:29:26;11.50;99.90
18163;DHT22;9206;50.994;4.538;2022-11-15T01:32:19;11.50;99.90
18163;DHT22;9206;50.994;4.538;2022-11-15T01:35:13;11.60;99.90
18163;DHT22;9206;50.994;4.538;2022-11-15T01:38:00;11.50;99.90
18163;DHT22;9206;50.994;4.538;2022-11-15T01:40:48;11.50;99.90
18163;DHT22;9206;50.994;4.538;2022-11-15T01:43:39;11.60;99.90
18163;DHT22;9206;50.994;4.538;2022-11-15T01:46:29;11.70;99.90
18163;DHT22;9206;50.994;4.538;2022-11-15T01:49:20;11.70;99.90
18163;DHT22;9206;50.994;4.538;2022-11-15T01:52:10;11.60;99.90
18163;DHT22;9206;50.994;4.538;2022-11-15T01:55:04;11.60;99.90
18163;DHT22;9206;50.994;4.538;2022-11-15T01:57:55;11.60;99.90
18163;DHT22;9206;50.994;4.538;2022-11-15T02:00:46;11.60;99.90
18163;DHT22;9206;50.994;4.538;2022-11-15T02:03:41;11.60;99.90
18163;DHT22;9206;50.994;4.538;2022-11-15T02:06:30;11.70;99.90
18163;DHT22;9206;50.994;4.538;2022-11-15T02:09:18;11.70;99.90
18163;DHT22;9206;50.994;4.538;2022-11-15T02:12:06;11.70;99.90
18163;DHT22;9206;50.994;4.538;2022-11-15T02:14:56;11.80;99.90
18163;DHT22;9206;50.994;4.538;2022-11-15T02:17:58;11.80;99.90
18163;DHT22;9206;50.994;4.538;2022-11-15T02:21:01;11.70;99.90
18163;DHT22;9206;50.994;4.538;2022-11-15T02:24:24;11.70;99.90
18163;DHT22;9206;50.994;4.538;2022-11-15T02:27:42;11.70;99.90
18163;DHT22;9206;50.994;4.538;2022-11-15T02:30:41;11.60;99.90
18163;DHT22;9206;50.994;4.538;2022-11-15T02:33:41;11.60;99.90
18163;DHT22;9206;50.994;4.538;2022-11-15T02:36:35;11.60;99.90
18163;DHT22;9206;50.994;4.538;2022-11-15T02:39:30;11.60;99.90
18163;DHT22;9206;50.994;4.538;2022-11-15T02:42:25;11.60;99.90
18163;DHT22;9206;50.994;4.538;2022-11-15T02:45:35;11.50;99.90
18163;DHT22;9206;50.994;4.538;2022-11-15T02:48:25;11.50;99.90
18163;DHT22;9206;50.994;4.538;2022-11-15T02:51:16;11.50;99.90
18163;DHT22;9206;50.994;4.538;2022-11-15T02:54:04;11.50;99.90
18163;DHT22;9206;50.994;4.538;2022-11-15T02:56:55;11.50;99.90
18163;DHT22;9206;50.994;4.538;2022-11-15T03:00:02;11.40;99.90
18163;DHT22;9206;50.994;4.538;2022-11-15T03:03:01;11.30;99.90
18163;DHT22;9206;50.994;4.538;2022-11-15T03:06:01;11.30;99.90
18163;DHT22;9206;50.994;4.538;2022-11-15T03:09:01;11.40;99.90
18163;DHT22;9206;50.994;4.538;2022-11-15T03:11:52;11.40;99.90
18163;DHT22;9206;50.994;4.538;2022-11-15T03:14:51;11.40;99.90
18163;DHT22;9206;50.994;4.538;2022-11-15T03:17:47;11.40;99.90
18163;DHT22;9206;50.994;4.538;2022-11-15T03:20:37;11.30;99.90
18163;DHT22;9206;50.994;4.538;2022-11-15T03:23:32;11.40;99.90
18163;DHT22;9206;50.994;4.538;2022-11-15T03:26:24;11.40;99.90
18163;DHT22;9206;50.994;4.538;2022-11-15T03:29:16;11.30;99.90
18163;DHT22;9206;50.994;4.538;2022-11-15T03:32:09;11.30;99.90
18163;DHT22;9206;50.994;4.538;2022-11-15T03:35:05;11.40;99.90
18163;DHT22;9206;50.994;4.538;2022-11-15T03:37:59;11.40;99.90
18163;DHT22;9206;50.994;4.538;2022-11-15T03:40:54;11.40;99.90
18163;DHT22;9206;50.994;4.538;2022-11-15T03:43:47;11.40;99.90
18163;DHT22;9206;50.994;4.538;2022-11-15T03:46:42;11.40;99.90
18163;DHT22;9206;50.994;4.538;2022-11-15T03:49:34;11.40;99.90
18163;DHT22;9206;50.994;4.538;2022-11-15T03:52:22;11.40;99.90
18163;DHT22;9206;50.994;4.538;2022-11-15T03:55:13;11.40;99.90
18163;DHT22;9206;50.994;4.538;2022-11-15T03:58:03;11.40;99.90
18163;DHT22;9206;50.994;4.538;2022-11-15T04:01:02;11.30;99.90
18163;DHT22;9206;50.994;4.538;2022-11-15T04:03:52;11.30;99.90
18163;DHT22;9206;50.994;4.538;2022-11-15T04:06:43;11.40;99.90
18163;DHT22;9206;50.994;4.538;2022-11-15T04:09:30;11.40;99.90
18163;DHT22;9206;50.994;4.538;2022-11-15T04:12:23;11.40;99.90
18163;DHT22;9206;50.994;4.538;2022-11-15T04:15:22;11.30;99.90
18163;DHT22;9206;50.994;4.538;2022-11-15T04:18:11;11.40;99.90
18163;DHT22;9206;50.994;4.538;2022-11-15T04:21:01;11.40;99.90
18163;DHT22;9206;50.994;4.538;2022-11-15T04:24:06;11.40;99.90
18163;DHT22;9206;50.994;4.538;2022-11-15T04:27:01;11.40;99.90
18163;DHT22;9206;50.994;4.538;2022-11-15T04:29:48;11.30;99.90
18163;DHT22;9206;50.994;4.538;2022-11-15T04:32:39;11.30;99.90
18163;DHT22;9206;50.994;4.538;2022-11-15T04:35:42;11.30;99.90
18163;DHT22;9206;50.994;4.538;2022-11-15T04:38:54;11.30;99.90
18163;DHT22;9206;50.994;4.538;2022-11-15T04:41:41;11.30;99.90
18163;DHT22;9206;50.994;4.538;2022-11-15T04:44:35;11.30;99.90
18163;DHT22;9206;50.994;4.538;2022-11-15T04:47:28;11.30;99.90
18163;DHT22;9206;50.994;4.538;2022-11-15T04:50:18;11.20;99.90
18163;DHT22;9206;50.994;4.538;2022-11-15T04:53:07;11.20;99.90
18163;DHT22;9206;50.994;4.538;2022-11-15T04:55:55;11.20;99.90
18163;DHT22;9206;50.994;4.538;2022-11-15T04:58:42;11.10;99.90
18163;DHT22;9206;50.994;4.538;2022-11-15T05:01:30;11.10;99.90
18163;DHT22;9206;50.994;4.538;2022-11-15T05:04:19;11.20;99.90
18163;DHT22;9206;50.994;4.538;2022-11-15T05:07:09;11.10;99.90
18163;DHT22;9206;50.994;4.538;2022-11-15T05:10:18;11.10;99.90
18163;DHT22;9206;50.994;4.538;2022-11-15T05:13:05;11.00;99.90
18163;DHT22;9206;50.994;4.538;2022-11-15T05:15:52;11.00;99.90
18163;DHT22;9206;50.994;4.538;2022-11-15T05:18:43;11.00;99.90
18163;DHT22;9206;50.994;4.538;2022-11-15T05:21:32;11.00;99.90
18163;DHT22;9206;50.994;4.538;2022-11-15T05:24:22;11.00;99.90
18163;DHT22;9206;50.994;4.538;2022-11-15T05:27:12;11.00;99.90
18163;DHT22;9206;50.994;4.538;2022-11-15T05:30:02;10.90;99.90
18163;DHT22;9206;50.994;4.538;2022-11-15T05:32:51;10.80;99.90
18163;DHT22;9206;50.994;4.538;2022-11-15T05:35:48;10.80;99.90
18163;DHT22;9206;50.994;4.538;2022-11-15T05:38:37;10.70;99.90
18163;DHT22;9206;50.994;4.538;2022-11-15T05:41:31;10.70;99.90
18163;DHT22;9206;50.994;4.538;2022-11-15T05:44:23;10.60;99.90
18163;DHT22;9206;50.994;4.538;2022-11-15T05:47:21;10.60;99.90
18163;DHT22;9206;50.994;4.538;2022-11-15T05:50:12;10.50;99.90
18163;DHT22;9206;50.994;4.538;2022-11-15T05:53:02;10.50;99.90
18163;DHT22;9206;50.994;4.538;2022-11-15T05:55:57;10.40;99.90
18163;DHT22;9206;50.994;4.538;2022-11-15T05:58:49;10.40;99.90
18163;DHT22;9206;50.994;4.538;2022-11-15T06:01:37;10.30;99.90
18163;DHT22;9206;50.994;4.538;2022-11-15T06:04:31;10.30;99.90
18163;DHT22;9206;50.994;4.538;2022-11-15T06:07:20;10.30;99.90
18163;DHT22;9206;50.994;4.538;2022-11-15T06:10:10;10.20;99.90
18163;DHT22;9206;50.994;4.538;2022-11-15T06:12:58;10.20;99.90
18163;DHT22;9206;50.994;4.538;2022-11-15T06:15:49;10.20;99.90
18163;DHT22;9206;50.994;4.538;2022-11-15T06:18:38;10.10;99.90
18163;DHT22;9206;50.994;4.538;2022-11-15T06:21:34;10.20;99.90
18163;DHT22;9206;50.994;4.538;2022-11-15T06:24:22;10.20;99.90
18163;DHT22;9206;50.994;4.538;2022-11-15T06:27:12;10.20;99.90
18163;DHT22;9206;50.994;4.538;2022-11-15T06:30:00;10.20;99.90
18163;DHT22;9206;50.994;4.538;2022-11-15T06:32:49;10.20;99.90
18163;DHT22;9206;50.994;4.538;2022-11-15T06:35:37;10.20;99.90
18163;DHT22;9206;50.994;4.538;2022-11-15T06:38:24;10.20;99.90
18163;DHT22;9206;50.994;4.538;2022-11-15T06:41:12;10.10;99.90
18163;DHT22;9206;50.994;4.538;2022-11-15T06:44:00;9.90;99.90
18163;DHT22;9206;50.994;4.538;2022-11-15T06:46:47;9.80;99.90
18163;DHT22;9206;50.994;4.538;2022-11-15T06:49:36;9.80;99.90
18163;DHT22;9206;50.994;4.538;2022-11-15T06:52:23;9.70;99.90
18163;DHT22;9206;50.994;4.538;2022-11-15T06:55:10;9.60;99.90
18163;DHT22;9206;50.994;4.538;2022-11-15T06:57:58;9.50;99.90
18163;DHT22;9206;50.994;4.538;2022-11-15T07:00:45;9.40;99.90
18163;DHT22;9206;50.994;4.538;2022-11-15T07:03:34;9.40;99.90
18163;DHT22;9206;50.994;4.538;2022-11-15T07:06:23;9.30;99.90
18163;DHT22;9206;50.994;4.538;2022-11-15T07:09:10;9.30;99.90
18163;DHT22;9206;50.994;4.538;2022-11-15T07:11:58;9.30;99.90
18163;DHT22;9206;50.994;4.538;2022-11-15T07:14:45;9.20;99.90
18163;DHT22;9206;50.994;4.538;2022-11-15T07:17:32;9.10;99.90
18163;DHT22;9206;50.994;4.538;2022-11-15T07:20:20;9.10;99.90
18163;DHT22;9206;50.994;4.538;2022-11-15T07:23:09;9.10;99.90
18163;DHT22;9206;50.994;4.538;2022-11-15T07:25:59;9.10;99.90
18163;DHT22;9206;50.994;4.538;2022-11-15T07:28:46;9.10;99.90
18163;DHT22;9206;50.994;4.538;2022-11-15T07:31:34;9.10;99.90
18163;DHT22;9206;50.994;4.538;2022-11-15T07:34:21;9.20;99.90
18163;DHT22;9206;50.994;4.538;2022-11-15T07:37:09;9.20;99.90
18163;DHT22;9206;50.994;4.538;2022-11-15T07:39:58;9.30;99.90
18163;DHT22;9206;50.994;4.538;2022-11-15T07:42:46;9.30;99.90
18163;DHT22;9206;50.994;4.538;2022-11-15T07:45:47;9.40;99.90
18163;DHT22;9206;50.994;4.538;2022-11-15T07:48:34;9.40;99.90
18163;DHT22;9206;50.994;4.538;2022-11-15T07:51:23;9.40;99.90
18163;DHT22;9206;50.994;4.538;2022-11-15T07:54:10;9.50;99.90
18163;DHT22;9206;50.994;4.538;2022-11-15T07:56:59;9.50;99.90
18163;DHT22;9206;50.994;4.538;2022-11-15T07:59:46;9.60;99.90
18163;DHT22;9206;50.994;4.538;2022-11-15T08:02:34;9.60;99.90
18163;DHT22;9206;50.994;4.538;2022-11-15T08:05:22;9.70;99.90
18163;DHT22;9206;50.994;4.538;2022-11-15T08:08:11;9.80;99.90
18163;DHT22;9206;50.994;4.538;2022-11-15T08:10:58;9.90;99.90
18163;DHT22;9206;50.994;4.538;2022-11-15T08:13:47;10.00;99.90
18163;DHT22;9206;50.994;4.538;2022-11-15T08:16:34;10.10;99.90
18163;DHT22;9206;50.994;4.538;2022-11-15T08:19:22;10.20;99.90
18163;DHT22;9206;50.994;4.538;2022-11-15T08:22:09;10.30;99.90
18163;DHT22;9206;50.994;4.538;2022-11-15T08:24:56;10.40;99.90
18163;DHT22;9206;50.994;4.538;2022-11-15T08:27:44;10.40;99.90
18163;DHT22;9206;50.994;4.538;2022-11-15T08:30:37;10.50;99.90
18163;DHT22;9206;50.994;4.538;2022-11-15T08:33:27;10.60;99.90
18163;DHT22;9206;50.994;4.538;2022-11-15T08:36:16;10.70;99.90
18163;DHT22;9206;50.994;4.538;2022-11-15T08:39:03;10.80;99.90
18163;DHT22;9206;50.994;4.538;2022-11-15T08:41:51;11.00;99.90
18163;DHT22;9206;50.994;4.538;2022-11-15T08:44:38;11.00;99.90
18163;DHT22;9206;50.994;4.538;2022-11-15T08:47:27;11.10;99.90
18163;DHT22;9206;50.994;4.538;2022-11-15T08:50:15;11.20;99.90
18163;DHT22;9206;50.994;4.538;2022-11-15T08:53:06;11.40;99.90
18163;DHT22;9206;50.994;4.538;2022-11-15T08:55:54;11.50;99.90
18163;DHT22;9206;50.994;4.538;2022-11-15T08:58:41;11.70;99.90
18163;DHT22;9206;50.994;4.538;2022-11-15T09:01:29;11.80;99.90
18163;DHT22;9206;50.994;4.538;2022-11-15T09:04:25;11.90;99.90
18163;DHT22;9206;50.994;4.538;2022-11-15T09:07:24;12.30;99.90
18163;DHT22;9206;50.994;4.538;2022-11-15T09:10:13;12.80;99.90
18163;DHT22;9206;50.994;4.538;2022-11-15T09:13:01;14.40;99.90
18163;DHT22;9206;50.994;4.538;2022-11-15T09:15:49;16.00;99.90
18163;DHT22;9206;50.994;4.538;2022-11-15T09:18:36;17.10;99.90
18163;DHT22;9206;50.994;4.538;2022-11-15T09:21:28;17.90;99.90
18163;DHT22;9206;50.994;4.538;2022-11-15T09:24:18;18.20;99.90
18163;DHT22;9206;50.994;4.538;2022-11-15T09:27:11;18.50;99.90
18163;DHT22;9206;50.994;4.538;2022-11-15T09:29:59;18.30;99.90
18163;DHT22;9206;50.994;4.538;2022-11-15T09:32:47;17.10;99.90
18163;DHT22;9206;50.994;4.538;2022-11-15T09:35:35;16.30;99.90
18163;DHT22;9206;50.994;4.538;2022-11-15T09:38:24;15.60;99.90
18163;DHT22;9206;50.994;4.538;2022-11-15T09:41:40;16.00;99.90
18163;DHT22;9206;50.994;4.538;2022-11-15T09:44:42;17.30;99.90
18163;DHT22;9206;50.994;4.538;2022-11-15T09:47:46;18.80;99.90
18163;DHT22;9206;50.994;4.538;2022-11-15T09:50:41;20.10;99.90
18163;DHT22;9206;50.994;4.538;2022-11-15T09:53:40;19.20;99.90
18163;DHT22;9206;50.994;4.538;2022-11-15T09:56:32;18.80;99.90
18163;DHT22;9206;50.994;4.538;2022-11-15T09:59:28;19.40;99.90
18163;DHT22;9206;50.994;4.538;2022-11-15T10:02:35;20.30;99.90
18163;DHT22;9206;50.994;4.538;2022-11-15T10:05:28;20.70;99.90
18163;DHT22;9206;50.994;4.538;2022-11-15T10:08:33;19.40;99.90
18163;DHT22;9206;50.994;4.538;2022-11-15T10:11:23;20.20;99.90
18163;DHT22;9206;50.994;4.538;2022-11-15T10:14:14;20.40;99.90
18163;DHT22;9206;50.994;4.538;2022-11-15T10:20:16;20.00;99.90
18163;DHT22;9206;50.994;4.538;2022-11-15T10:23:06;19.20;99.90
18163;DHT22;9206;50.994;4.538;2022-11-15T10:25:58;18.40;99.90
18163;DHT22;9206;50.994;4.538;2022-11-15T10:28:47;17.60;99.90
18163;DHT22;9206;50.994;4.538;2022-11-15T10:31:39;17.30;99.90
18163;DHT22;9206;50.994;4.538;2022-11-15T10:34:27;17.30;99.90
18163;DHT22;9206;50.994;4.538;2022-11-15T10:37:27;16.80;99.90
18163;DHT22;9206;50.994;4.538;2022-11-15T10:40:18;16.70;99.90
18163;DHT22;9206;50.994;4.538;2022-11-15T10:43:13;17.30;99.90
18163;DHT22;9206;50.994;4.538;2022-11-15T10:46:18;17.80;99.90
18163;DHT22;9206;50.994;4.538;2022-11-15T10:49:14;18.00;99.90
18163;DHT22;9206;50.994;4.538;2022-11-15T10:52:04;18.40;99.90
18163;DHT22;9206;50.994;4.538;2022-11-15T10:55:03;17.60;99.90
18163;DHT22;9206;50.994;4.538;2022-11-15T10:57:54;17.00;99.90
18163;DHT22;9206;50.994;4.538;2022-11-15T11:00:41;16.20;99.90
18163;DHT22;9206;50.994;4.538;2022-11-15T11:03:34;15.30;99.90
18163;DHT22;9206;50.994;4.538;2022-11-15T11:06:23;14.90;99.90
18163;DHT22;9206;50.994;4.538;2022-11-15T11:09:23;14.70;99.90
18163;DHT22;9206;50.994;4.538;2022-11-15T11:12:11;14.40;99.90
18163;DHT22;9206;50.994;4.538;2022-11-15T11:14:59;14.20;99.90
18163;DHT22;9206;50.994;4.538;2022-11-15T11:17:57;13.80;99.90
18163;DHT22;9206;50.994;4.538;2022-11-15T11:20:53;13.50;99.90
18163;DHT22;9206;50.994;4.538;2022-11-15T11:23:50;13.60;99.90
18163;DHT22;9206;50.994;4.538;2022-11-15T11:26:49;13.70;99.90
18163;DHT22;9206;50.994;4.538;2022-11-15T11:29:47;13.70;99.90
18163;DHT22;9206;50.994;4.538;2022-11-15T11:33:00;13.70;99.90
18163;DHT22;9206;50.994;4.538;2022-11-15T11:35:58;13.60;99.90
18163;DHT22;9206;50.994;4.538;2022-11-15T11:38:58;13.50;99.90
18163;DHT22;9206;50.994;4.538;2022-11-15T11:41:55;13.60;99.90
18163;DHT22;9206;50.994;4.538;2022-11-15T11:44:53;13.50;99.90
18163;DHT22;9206;50.994;4.538;2022-11-15T11:47:47;13.70;99.90
18163;DHT22;9206;50.994;4.538;2022-11-15T11:50:38;13.60;99.90
18163;DHT22;9206;50.994;4.538;2022-11-15T11:53:31;13.80;99.90
18163;DHT22;9206;50.994;4.538;2022-11-15T11:56:32;13.90;99.90
18163;DHT22;9206;50.994;4.538;2022-11-15T11:59:28;13.90;99.90
18163;DHT22;9206;50.994;4.538;2022-11-15T12:02:28;14.10;99.90
18163;DHT22;9206;50.994;4.538;2022-11-15T12:05:27;14.00;99.90
18163;DHT22;9206;50.994;4.538;2022-11-15T12:08:24;13.70;99.90
18163;DHT22;9206;50.994;4.538;2022-11-15T12:11:22;13.60;99.90
18163;DHT22;9206;50.994;4.538;2022-11-15T12:14:24;13.50;99.90
18163;DHT22;9206;50.994;4.538;2022-11-15T12:17:13;13.50;99.90
18163;DHT22;9206;50.994;4.538;2022-11-15T12:20:04;13.50;99.90
18163;DHT22;9206;50.994;4.538;2022-11-15T12:22:58;13.40;99.90
18163;DHT22;9206;50.994;4.538;2022-11-15T12:25:52;13.50;99.90
18163;DHT22;9206;50.994;4.538;2022-11-15T12:28:44;13.40;99.90
18163;DHT22;9206;50.994;4.538;2022-11-15T12:31:37;13.30;99.90
18163;DHT22;9206;50.994;4.538;2022-11-15T12:34:44;13.40;99.90
18163;DHT22;9206;50.994;4.538;2022-11-15T12:37:54;13.40;99.90
18163;DHT22;9206;50.994;4.538;2022-11-15T12:41:12;13.40;99.90
18163;DHT22;9206;50.994;4.538;2022-11-15T12:44:02;13.40;99.90
18163;DHT22;9206;50.994;4.538;2022-11-15T12:47:02;13.40;99.90
18163;DHT22;9206;50.994;4.538;2022-11-15T12:49:50;13.40;99.90
18163;DHT22;9206;50.994;4.538;2022-11-15T12:56:22;13.40;99.90
18163;DHT22;9206;50.994;4.538;2022-11-15T12:59:10;13.40;99.90
18163;DHT22;9206;50.994;4.538;2022-11-15T13:01:59;13.40;99.90
18163;DHT22;9206;50.994;4.538;2022-11-15T13:04:47;13.40;99.90
18163;DHT22;9206;50.994;4.538;2022-11-15T13:07:56;13.50;99.90
18163;DHT22;9206;50.994;4.538;2022-11-15T13:10:44;13.60;99.90
18163;DHT22;9206;50.994;4.538;2022-11-15T13:13:44;13.70;99.90
18163;DHT22;9206;50.994;4.538;2022-11-15T13:16:32;13.70;99.90
18163;DHT22;9206;50.994;4.538;2022-11-15T13:19:22;13.70;99.90
18163;DHT22;9206;50.994;4.538;2022-11-15T13:22:10;13.80;99.90
18163;DHT22;9206;50.994;4.538;2022-11-15T13:25:16;13.80;99.90
18163;DHT22;9206;50.994;4.538;2022-11-15T13:28:11;13.80;99.90
18163;DHT22;9206;50.994;4.538;2022-11-15T13:31:24;13.80;99.90
18163;DHT22;9206;50.994;4.538;2022-11-15T13:34:26;13.90;99.90
18163;DHT22;9206;50.994;4.538;2022-11-15T13:37:30;13.80;99.90
18163;DHT22;9206;50.994;4.538;2022-11-15T13:40:29;13.70;99.90
18163;DHT22;9206;50.994;4.538;2022-11-15T13:43:28;13.60;99.90
18163;DHT22;9206;50.994;4.538;2022-11-15T13:46:20;13.50;99.90
18163;DHT22;9206;50.994;4.538;2022-11-15T13:49:09;13.50;99.90
18163;DHT22;9206;50.994;4.538;2022-11-15T13:51:58;13.40;99.90
18163;DHT22;9206;50.994;4.538;2022-11-15T13:54:52;13.50;99.90
18163;DHT22;9206;50.994;4.538;2022-11-15T13:57:44;13.50;99.90
18163;DHT22;9206;50.994;4.538;2022-11-15T14:00:36;13.50;99.90
18163;DHT22;9206;50.994;4.538;2022-11-15T14:03:26;13.50;99.90
18163;DHT22;9206;50.994;4.538;2022-11-15T14:06:19;13.50;99.90
18163;DHT22;9206;50.994;4.538;2022-11-15T14:09:29;13.50;99.90
18163;DHT22;9206;50.994;4.538;2022-11-15T14:12:26;13.50;99.90
18163;DHT22;9206;50.994;4.538;2022-11-15T14:15:28;13.50;99.90
18163;DHT22;9206;50.994;4.538;2022-11-15T14:18:41;13.50;99.90
18163;DHT22;9206;50.994;4.538;2022-11-15T14:21:30;13.50;99.90
18163;DHT22;9206;50.994;4.538;2022-11-15T14:24:19;13.50;99.90
18163;DHT22;9206;50.994;4.538;2022-11-15T14:27:22;13.50;99.90
18163;DHT22;9206;50.994;4.538;2022-11-15T14:30:18;13.50;99.90
18163;DHT22;9206;50.994;4.538;2022-11-15T14:33:19;13.50;99.90
18163;DHT22;9206;50.994;4.538;2022-11-15T14:36:11;13.50;99.90
18163;DHT22;9206;50.994;4.538;2022-11-15T14:39:00;13.40;99.90
18163;DHT22;9206;50.994;4.538;2022-11-15T14:41:51;13.30;99.90
18163;DHT22;9206;50.994;4.538;2022-11-15T14:44:38;13.30;99.90
18163;DHT22;9206;50.994;4.538;2022-11-15T14:47:25;13.10;99.90
18163;DHT22;9206;50.994;4.538;2022-11-15T14:50:16;13.10;99.90
18163;DHT22;9206;50.994;4.538;2022-11-15T14:53:05;13.00;99.90
18163;DHT22;9206;50.994;4.538;2022-11-15T14:55:53;13.00;99.90
18163;DHT22;9206;50.994;4.538;2022-11-15T14:58:41;13.00;99.90
18163;DHT22;9206;50.994;4.538;2022-11-15T15:01:28;13.00;99.90
18163;DHT22;9206;50.994;4.538;2022-11-15T15:04:15;12.90;99.90
18163;DHT22;9206;50.994;4.538;2022-11-15T15:07:03;12.90;99.90
18163;DHT22;9206;50.994;4.538;2022-11-15T15:09:50;12.80;99.90
18163;DHT22;9206;50.994;4.538;2022-11-15T15:12:39;12.80;99.90
18163;DHT22;9206;50.994;4.538;2022-11-15T15:15:35;12.80;99.90
18163;DHT22;9206;50.994;4.538;2022-11-15T15:18:23;12.80;99.90
18163;DHT22;9206;50.994;4.538;2022-11-15T15:21:18;12.80;99.90
18163;DHT22;9206;50.994;4.538;2022-11-15T15:24:09;12.70;99.90
18163;DHT22;9206;50.994;4.538;2022-11-15T15:27:00;12.70;99.90
18163;DHT22;9206;50.994;4.538;2022-11-15T15:29:49;12.70;99.90
18163;DHT22;9206;50.994;4.538;2022-11-15T15:32:36;12.70;99.90
18163;DHT22;9206;50.994;4.538;2022-11-15T15:35:24;12.60;99.90
18163;DHT22;9206;50.994;4.538;2022-11-15T15:38:12;12.60;99.90
18163;DHT22;9206;50.994;4.538;2022-11-15T15:41:01;12.50;99.90
18163;DHT22;9206;50.994;4.538;2022-11-15T15:43:49;12.50;99.90
18163;DHT22;9206;50.994;4.538;2022-11-15T15:46:38;12.50;99.90
18163;DHT22;9206;50.994;4.538;2022-11-15T15:49:25;12.40;99.90
18163;DHT22;9206;50.994;4.538;2022-11-15T15:52:12;12.30;99.90
18163;DHT22;9206;50.994;4.538;2022-11-15T15:54:59;12.30;99.90
18163;DHT22;9206;50.994;4.538;2022-11-15T15:57:47;12.20;99.90
18163;DHT22;9206;50.994;4.538;2022-11-15T16:00:35;12.20;99.90
18163;DHT22;9206;50.994;4.538;2022-11-15T16:03:24;12.20;99.90
18163;DHT22;9206;50.994;4.538;2022-11-15T16:06:33;12.10;99.90
18163;DHT22;9206;50.994;4.538;2022-11-15T16:09:21;12.10;99.90
18163;DHT22;9206;50.994;4.538;2022-11-15T16:12:30;12.10;99.90
18163;DHT22;9206;50.994;4.538;2022-11-15T16:15:18;12.10;99.90
18163;DHT22;9206;50.994;4.538;2022-11-15T16:18:06;12.00;99.90
18163;DHT22;9206;50.994;4.538;2022-11-15T16:20:55;12.00;99.90
18163;DHT22;9206;50.994;4.538;2022-11-15T16:23:42;12.00;99.90
18163;DHT22;9206;50.994;4.538;2022-11-15T16:26:30;12.00;99.90
18163;DHT22;9206;50.994;4.538;2022-11-15T16:29:17;12.00;99.90
18163;DHT22;9206;50.994;4.538;2022-11-15T16:32:04;12.00;99.90
18163;DHT22;9206;50.994;4.538;2022-11-15T16:34:52;12.00;99.90
18163;DHT22;9206;50.994;4.538;2022-11-15T16:37:41;12.00;99.90
18163;DHT22;9206;50.994;4.538;2022-11-15T16:40:33;11.90;99.90
18163;DHT22;9206;50.994;4.538;2022-11-15T16:43:21;11.90;99.90
18163;DHT22;9206;50.994;4.538;2022-11-15T16:46:15;11.90;99.90
18163;DHT22;9206;50.994;4.538;2022-11-15T16:49:03;11.90;99.90
18163;DHT22;9206;50.994;4.538;2022-11-15T16:51:51;11.80;99.90
18163;DHT22;9206;50.994;4.538;2022-11-15T16:54:39;11.80;99.90
18163;DHT22;9206;50.994;4.538;2022-11-15T16:57:26;11.90;99.90
18163;DHT22;9206;50.994;4.538;2022-11-15T17:00:15;11.80;99.90
18163;DHT22;9206;50.994;4.538;2022-11-15T17:03:04;11.80;99.90
18163;DHT22;9206;50.994;4.538;2022-11-15T17:05:57;11.80;99.90
18163;DHT22;9206;50.994;4.538;2022-11-15T17:08:45;11.80;99.90
18163;DHT22;9206;50.994;4.538;2022-11-15T17:11:33;11.80;99.90
18163;DHT22;9206;50.994;4.538;2022-11-15T17:14:21;11.90;99.90
18163;DHT22;9206;50.994;4.538;2022-11-15T17:17:09;11.90;99.90
18163;DHT22;9206;50.994;4.538;2022-11-15T17:19:58;11.90;99.90
18163;DHT22;9206;50.994;4.538;2022-11-15T17:22:47;11.90;99.90
18163;DHT22;9206;50.994;4.538;2022-11-15T17:25:36;11.90;99.90
18163;DHT22;9206;50.994;4.538;2022-11-15T17:28:31;12.00;99.90
18163;DHT22;9206;50.994;4.538;2022-11-15T17:31:24;12.00;99.90
18163;DHT22;9206;50.994;4.538;2022-11-15T17:34:12;12.00;99.90
18163;DHT22;9206;50.994;4.538;2022-11-15T17:37:00;12.00;99.90
18163;DHT22;9206;50.994;4.538;2022-11-15T17:39:50;12.00;99.90
18163;DHT22;9206;50.994;4.538;2022-11-15T17:42:39;12.00;99.90
18163;DHT22;9206;50.994;4.538;2022-11-15T17:45:28;12.00;99.90
18163;DHT22;9206;50.994;4.538;2022-11-15T17:48:16;11.90;99.90
18163;DHT22;9206;50.994;4.538;2022-11-15T17:51:07;11.90;99.90
18163;DHT22;9206;50.994;4.538;2022-11-15T17:53:56;11.90;99.90
18163;DHT22;9206;50.994;4.538;2022-11-15T17:56:43;11.80;99.90
18163;DHT22;9206;50.994;4.538;2022-11-15T17:59:31;11.80;99.90
18163;DHT22;9206;50.994;4.538;2022-11-15T18:02:20;11.80;99.90
18163;DHT22;9206;50.994;4.538;2022-11-15T18:05:07;11.90;99.90
18163;DHT22;9206;50.994;4.538;2022-11-15T18:07:54;11.90;99.90
18163;DHT22;9206;50.994;4.538;2022-11-15T18:10:44;11.90;99.90
18163;DHT22;9206;50.994;4.538;2022-11-15T18:13:35;11.90;99.90
18163;DHT22;9206;50.994;4.538;2022-11-15T18:16:24;11.90;99.90
18163;DHT22;9206;50.994;4.538;2022-11-15T18:19:14;11.90;99.90
18163;DHT22;9206;50.994;4.538;2022-11-15T18:22:02;11.90;99.90
18163;DHT22;9206;50.994;4.538;2022-11-15T18:24:53;11.80;99.90
18163;DHT22;9206;50.994;4.538;2022-11-15T18:27:43;11.90;99.90
18163;DHT22;9206;50.994;4.538;2022-11-15T18:30:32;11.80;99.90
18163;DHT22;9206;50.994;4.538;2022-11-15T18:33:20;11.80;99.90